createdAt,value
2023-03-13T00:06:42.921Z,24.40
2023-03-13T00:07:42.965Z,24.41
2023-03-13T00:08:43.020Z,24.39
2023-03-13T00:09:42.987Z,24.41
2023-03-13T00:10:43.029Z,24.38
2023-03-13T00:11:43.029Z,24.36
2023-03-13T00:12:43.078Z,24.35
2023-03-13T00:13:43.117Z,24.34
2023-03-13T00:14:43.130Z,24.30
2023-03-13T00:15:43.200Z,24.29
2023-03-13T00:16:43.276Z,24.28
2023-03-13T00:17:43.202Z,24.27
2023-03-13T00:18:43.199Z,24.27
2023-03-13T00:19:43.230Z,24.28
2023-03-13T00:20:43.275Z,24.24
2023-03-13T00:21:43.296Z,24.23
2023-03-13T00:22:43.291Z,24.22
2023-03-13T00:23:43.320Z,24.22
2023-03-13T00:24:43.333Z,24.20
2023-03-13T00:25:43.363Z,24.19
2023-03-13T00:26:43.357Z,24.17
2023-03-13T00:27:43.428Z,24.16
2023-03-13T00:28:45.111Z,24.14
2023-03-13T00:29:43.429Z,24.13
2023-03-13T00:30:43.535Z,24.11
2023-03-13T00:31:43.544Z,24.08
2023-03-13T00:32:43.584Z,24.05
2023-03-13T00:33:43.558Z,24.04
2023-03-13T00:34:43.613Z,24.04
2023-03-13T00:35:43.628Z,24.00
2023-03-13T00:36:43.637Z,23.98
2023-03-13T00:37:43.672Z,23.96
2023-03-13T00:38:43.727Z,23.96
2023-03-13T00:39:43.778Z,23.95
2023-03-13T00:40:43.824Z,23.93
2023-03-13T00:41:43.889Z,23.93
2023-03-13T00:42:43.943Z,23.90
2023-03-13T00:43:43.981Z,23.90
2023-03-13T00:44:44.000Z,23.87
2023-03-13T00:45:44.110Z,23.85
2023-03-13T00:46:44.093Z,23.85
2023-03-13T00:47:44.130Z,23.83
2023-03-13T00:48:44.301Z,23.82
2023-03-13T00:49:44.248Z,23.81
2023-03-13T00:50:44.294Z,23.81
2023-03-13T00:51:44.314Z,23.77
2023-03-13T00:52:44.347Z,23.76
2023-03-13T00:53:44.380Z,23.76
2023-03-13T00:54:44.426Z,23.75
2023-03-13T00:55:44.505Z,23.74
2023-03-13T00:56:44.541Z,23.74
2023-03-13T00:57:44.596Z,23.74
2023-03-13T00:58:44.627Z,23.71
2023-03-13T00:59:44.671Z,23.72
2023-03-13T01:00:44.662Z,23.70
2023-03-13T01:01:44.712Z,23.69
2023-03-13T01:02:44.901Z,23.67
2023-03-13T01:03:44.828Z,23.68
2023-03-13T01:04:44.848Z,23.69
2023-03-13T01:05:44.884Z,23.67
2023-03-13T01:06:44.960Z,23.66
2023-03-13T01:07:45.034Z,23.67
2023-03-13T01:08:45.043Z,23.66
2023-03-13T01:09:45.071Z,23.63
2023-03-13T01:10:45.122Z,23.65
2023-03-13T01:11:45.194Z,23.62
2023-03-13T01:12:45.238Z,23.65
2023-03-13T01:13:45.258Z,23.66
2023-03-13T01:14:45.309Z,23.67
2023-03-13T01:17:45.482Z,23.63
2023-03-13T01:21:45.630Z,23.63
2023-03-13T01:22:45.684Z,23.62
2023-03-13T01:23:45.693Z,23.61
2023-03-13T05:58:51.637Z,23.55
2023-03-13T05:59:51.672Z,23.55
2023-03-13T06:01:51.678Z,23.54
2023-03-13T06:02:51.669Z,23.54
2023-03-13T06:03:51.725Z,23.54
2023-03-13T07:14:51.667Z,28.40
2023-03-13T07:24:51.740Z,28.93
2023-03-13T07:28:51.681Z,29.70
2023-03-13T07:29:52.176Z,29.56
2023-03-13T07:30:51.702Z,29.76
2023-03-13T07:31:51.799Z,29.91
2023-03-13T07:32:51.921Z,29.78
2023-03-13T07:33:51.773Z,29.94
2023-03-13T07:34:51.814Z,29.84
2023-03-13T07:35:51.833Z,29.92
2023-03-13T07:36:51.836Z,29.95
2023-03-13T07:37:51.797Z,30.21
2023-03-13T07:38:51.819Z,30.21
2023-03-13T07:39:51.858Z,29.99
2023-03-13T07:40:51.863Z,29.86
2023-03-13T07:41:51.877Z,29.88
2023-03-13T07:42:51.911Z,29.86
2023-03-13T07:43:51.936Z,29.81
2023-03-13T07:44:52.163Z,29.81
2023-03-13T07:45:52.028Z,29.85
2023-03-13T07:46:52.028Z,29.90
2023-03-13T07:47:52.017Z,30.15
2023-03-13T07:48:52.027Z,30.23
2023-03-13T07:49:52.186Z,30.22
2023-03-13T07:50:52.072Z,30.16
2023-03-13T07:51:52.128Z,30.20
2023-03-13T07:52:52.244Z,30.37
2023-03-13T07:53:52.142Z,30.32
2023-03-13T07:54:52.262Z,30.48
2023-03-13T07:55:52.199Z,30.34
2023-03-13T07:56:52.560Z,30.49
2023-03-13T07:57:52.545Z,30.37
2023-03-13T07:58:52.289Z,30.42
2023-03-13T07:59:52.226Z,30.36
2023-03-13T08:00:52.247Z,30.42
2023-03-13T08:01:52.299Z,30.38
2023-03-13T08:02:52.250Z,30.48
2023-03-13T08:03:52.322Z,30.48
2023-03-13T08:04:52.262Z,30.48
2023-03-13T08:05:52.318Z,30.75
2023-03-13T08:06:52.348Z,30.88
2023-03-13T08:07:52.343Z,30.72
2023-03-13T08:08:52.366Z,31.02
2023-03-13T08:09:52.364Z,31.07
2023-03-13T08:10:52.690Z,31.07
2023-03-13T08:11:52.417Z,31.10
2023-03-13T08:12:52.424Z,31.42
2023-03-13T08:13:52.442Z,31.12
2023-03-13T08:14:52.429Z,31.20
2023-03-13T08:15:52.690Z,31.33
2023-03-13T08:16:52.556Z,31.30
2023-03-13T08:17:52.535Z,31.21
2023-03-13T08:18:52.497Z,31.18
2023-03-13T08:19:52.548Z,31.18
2023-03-13T08:20:52.486Z,31.21
2023-03-13T08:21:52.563Z,31.20
2023-03-13T08:22:52.522Z,31.29
2023-03-13T08:23:52.543Z,31.07
2023-03-13T08:24:52.534Z,31.25
2023-03-13T08:25:52.544Z,31.48
2023-03-13T08:26:52.549Z,31.45
2023-03-13T08:27:52.567Z,31.44
2023-03-13T08:28:52.583Z,31.55
2023-03-13T08:29:52.571Z,31.56
2023-03-13T08:30:52.729Z,31.69
2023-03-13T08:31:52.629Z,31.50
2023-03-13T08:32:52.664Z,31.50
2023-03-13T08:33:52.669Z,31.34
2023-03-13T08:34:52.651Z,31.03
2023-03-13T08:35:52.703Z,29.28
2023-03-13T08:36:52.687Z,29.98
2023-03-13T08:37:52.693Z,30.34
2023-03-13T08:38:52.701Z,30.51
2023-03-13T08:39:52.654Z,30.31
2023-03-13T08:40:52.711Z,30.16
2023-03-13T08:41:52.670Z,29.89
2023-03-13T08:42:52.655Z,29.76
2023-03-13T08:43:52.665Z,29.94
2023-03-13T08:44:52.686Z,29.90
2023-03-13T08:45:52.736Z,30.45
2023-03-13T08:46:52.669Z,30.41
2023-03-13T08:47:52.719Z,30.57
2023-03-13T08:48:52.757Z,30.92
2023-03-13T08:49:52.776Z,30.65
2023-03-13T08:50:53.204Z,31.00
2023-03-13T08:51:52.761Z,31.11
2023-03-13T08:52:52.750Z,30.89
2023-03-13T08:53:52.802Z,30.59
2023-03-13T08:54:52.786Z,30.31
2023-03-13T08:55:52.851Z,30.06
2023-03-13T08:56:52.856Z,29.87
2023-03-13T08:57:52.957Z,29.50
2023-03-13T08:58:53.039Z,29.30
2023-03-13T08:59:52.915Z,29.01
2023-03-13T09:00:53.181Z,28.83
2023-03-13T09:01:52.900Z,28.42
2023-03-13T09:02:53.071Z,28.37
2023-03-13T09:03:53.049Z,28.27
2023-03-13T09:04:52.992Z,28.19
2023-03-13T09:05:56.320Z,28.08
2023-03-13T09:06:52.937Z,28.07
2023-03-13T09:07:52.893Z,28.09
2023-03-13T09:08:52.987Z,28.21
2023-03-13T09:09:52.919Z,28.30
2023-03-13T09:10:52.818Z,28.49
2023-03-13T09:11:52.765Z,28.61
2023-03-13T09:12:52.807Z,28.78
2023-03-13T09:13:52.743Z,28.83
2023-03-13T09:14:52.725Z,29.04
2023-03-13T09:15:52.710Z,29.06
2023-03-13T09:16:52.653Z,29.21
2023-03-13T09:17:52.653Z,29.33
2023-03-13T09:18:52.791Z,29.42
2023-03-13T09:20:00.158Z,29.62
2023-03-13T09:20:53.545Z,29.65
2023-03-13T09:21:52.514Z,30.00
2023-03-13T09:22:52.454Z,29.99
2023-03-13T09:23:52.443Z,29.93
2023-03-13T09:24:52.405Z,30.14
2023-03-13T09:25:52.374Z,30.24
2023-03-13T09:27:01.038Z,30.31
2023-03-13T09:27:53.370Z,30.40
2023-03-13T09:28:52.440Z,30.51
2023-03-13T09:29:52.235Z,30.66
2023-03-13T09:30:52.757Z,30.69
2023-03-13T09:31:52.176Z,30.54
2023-03-13T09:32:52.254Z,31.03
2023-03-13T09:33:52.133Z,31.06
2023-03-13T09:34:52.067Z,31.23
2023-03-13T09:35:52.278Z,31.07
2023-03-13T09:36:52.046Z,30.92
2023-03-13T09:37:51.986Z,30.12
2023-03-13T09:38:52.024Z,28.19
2023-03-13T09:39:51.939Z,28.90
2023-03-13T09:41:05.352Z,30.40
2023-03-13T09:41:52.911Z,30.46
2023-03-13T09:42:51.865Z,29.93
2023-03-13T09:43:51.861Z,27.83
2023-03-13T09:44:51.878Z,28.06
2023-03-13T09:45:52.244Z,28.20
2023-03-13T09:46:51.930Z,28.68
2023-03-13T09:47:51.833Z,29.12
2023-03-13T09:48:51.852Z,29.24
2023-03-13T09:49:51.865Z,29.35
2023-03-13T09:50:51.882Z,29.59
2023-03-13T09:51:52.234Z,30.12
2023-03-13T09:52:51.872Z,30.32
2023-03-13T09:53:51.903Z,30.11
2023-03-13T09:54:51.882Z,30.22
2023-03-13T09:55:51.904Z,30.01
2023-03-13T09:56:51.914Z,29.90
2023-03-13T09:57:51.905Z,29.91
2023-03-13T09:58:51.989Z,29.77
2023-03-13T10:00:51.975Z,29.93
2023-03-13T10:01:52.054Z,30.16
2023-03-13T10:02:52.119Z,29.98
2023-03-13T10:03:52.106Z,29.96
2023-03-13T10:04:52.206Z,29.94
2023-03-13T10:05:53.156Z,30.06
2023-03-13T10:06:52.227Z,30.14
2023-03-13T10:07:52.178Z,30.39
2023-03-13T10:08:52.183Z,30.14
2023-03-13T10:09:52.198Z,30.40
2023-03-13T10:10:52.165Z,30.38
2023-03-13T10:11:52.243Z,30.32
2023-03-13T10:12:52.178Z,30.58
2023-03-13T10:13:52.230Z,30.61
2023-03-13T10:14:52.209Z,30.76
2023-03-13T10:15:52.224Z,31.01
2023-03-13T10:16:52.242Z,31.26
2023-03-13T10:17:52.232Z,31.63
2023-03-13T10:18:52.255Z,31.45
2023-03-13T10:19:52.289Z,31.23
2023-03-13T10:20:52.369Z,31.52
2023-03-13T10:21:52.380Z,31.65
2023-03-13T10:22:52.396Z,31.58
2023-03-13T10:23:52.397Z,31.72
2023-03-13T10:24:52.404Z,31.70
2023-03-13T10:25:52.430Z,31.70
2023-03-13T10:26:53.225Z,31.80
2023-03-13T10:27:52.457Z,31.91
2023-03-13T10:28:52.511Z,31.96
2023-03-13T10:29:52.551Z,32.13
2023-03-13T10:30:52.695Z,32.22
2023-03-13T10:31:52.558Z,32.22
2023-03-13T10:32:52.561Z,32.71
2023-03-13T10:33:52.621Z,32.53
2023-03-13T10:34:52.541Z,32.76
2023-03-13T10:35:52.658Z,32.93
2023-03-13T10:36:52.614Z,32.84
2023-03-13T10:37:52.591Z,32.96
2023-03-13T10:38:52.570Z,32.94
2023-03-13T10:39:52.568Z,33.03
2023-03-13T10:40:52.573Z,33.18
2023-03-13T10:41:52.775Z,33.13
2023-03-13T10:42:52.629Z,33.07
2023-03-13T10:43:52.673Z,30.96
2023-03-13T10:44:52.640Z,30.00
2023-03-13T10:45:52.661Z,29.27
2023-03-13T10:46:52.864Z,30.92
2023-03-13T10:47:52.632Z,31.15
2023-03-13T10:48:52.737Z,31.11
2023-03-13T10:49:52.783Z,30.86
2023-03-13T10:50:52.718Z,30.87
2023-03-13T10:51:52.795Z,30.99
2023-03-13T10:52:52.820Z,31.17
2023-03-13T10:53:52.748Z,31.06
2023-03-13T10:54:52.742Z,30.98
2023-03-13T10:55:52.836Z,30.90
2023-03-13T10:56:53.267Z,30.88
2023-03-13T10:57:52.802Z,30.83
2023-03-13T10:58:52.844Z,30.92
2023-03-13T10:59:52.830Z,30.67
2023-03-13T11:00:52.877Z,31.34
2023-03-13T11:01:53.236Z,31.18
2023-03-13T11:02:53.030Z,30.91
2023-03-13T11:03:53.052Z,30.69
2023-03-13T11:04:52.932Z,30.94
2023-03-13T11:05:52.992Z,30.70
2023-03-13T11:06:53.250Z,30.63
2023-03-13T11:07:53.008Z,30.73
2023-03-13T11:08:53.026Z,30.73
2023-03-13T11:10:53.045Z,30.56
2023-03-13T11:11:53.133Z,30.59
2023-03-13T11:12:53.100Z,30.47
2023-03-13T11:13:53.101Z,30.33
2023-03-13T11:14:53.110Z,30.39
2023-03-13T11:15:53.169Z,30.32
2023-03-13T11:16:53.718Z,30.26
2023-03-13T11:17:53.099Z,30.06
2023-03-13T11:18:53.105Z,30.01
2023-03-13T11:19:53.637Z,29.98
2023-03-13T11:20:53.125Z,27.58
2023-03-13T11:21:53.151Z,28.83
2023-03-13T11:22:53.214Z,29.26
2023-03-13T11:23:53.209Z,29.44
2023-03-13T11:24:53.221Z,29.26
2023-03-13T11:25:53.239Z,29.38
2023-03-13T11:27:04.296Z,29.46
2023-03-13T11:27:54.290Z,29.51
2023-03-13T11:28:53.194Z,29.56
2023-03-13T11:29:53.197Z,29.73
2023-03-13T11:30:53.130Z,29.62
2023-03-13T11:31:53.142Z,29.66
2023-03-13T11:32:53.335Z,29.69
2023-03-13T11:33:53.091Z,29.52
2023-03-13T11:34:53.050Z,29.51
2023-03-13T11:35:53.023Z,29.76
2023-03-13T11:36:52.996Z,29.52
2023-03-13T11:37:53.297Z,29.60
2023-03-13T11:38:52.991Z,29.35
2023-03-13T11:39:52.973Z,29.70
2023-03-13T11:40:52.993Z,29.85
2023-03-13T11:41:53.073Z,29.82
2023-03-13T11:42:53.275Z,30.23
2023-03-13T11:43:53.314Z,30.29
2023-03-13T11:44:53.100Z,30.04
2023-03-13T11:45:53.181Z,30.03
2023-03-13T11:46:53.135Z,30.06
2023-03-13T11:47:53.272Z,30.03
2023-03-13T11:48:53.197Z,30.03
2023-03-13T11:49:53.193Z,30.03
2023-03-13T11:50:53.226Z,30.04
2023-03-13T11:51:53.262Z,30.05
2023-03-13T11:52:53.973Z,29.99
2023-03-13T11:53:53.307Z,29.95
2023-03-13T11:54:53.320Z,29.95
2023-03-13T11:55:53.331Z,29.92
2023-03-13T11:56:53.380Z,29.88
2023-03-13T11:57:53.384Z,29.82
2023-03-13T11:58:53.764Z,29.80
2023-03-13T11:59:53.478Z,29.76
2023-03-13T12:00:53.512Z,29.73
2023-03-13T12:01:53.537Z,29.69
2023-03-13T12:02:53.485Z,29.69
2023-03-13T12:03:53.594Z,29.65
2023-03-13T12:04:53.597Z,29.59
2023-03-13T12:05:53.551Z,29.57
2023-03-13T12:06:53.554Z,29.55
2023-03-13T12:07:53.636Z,29.53
2023-03-13T12:08:53.591Z,29.52
2023-03-13T12:09:53.706Z,29.51
2023-03-13T12:10:53.730Z,29.45
2023-03-13T12:11:53.708Z,29.45
2023-03-13T12:12:53.726Z,29.41
2023-03-13T12:13:53.758Z,29.38
2023-03-13T12:14:53.773Z,29.31
2023-03-13T12:15:53.830Z,29.28
2023-03-13T12:16:53.943Z,29.26
2023-03-13T12:17:53.935Z,29.25
2023-03-13T12:18:54.272Z,29.24
2023-03-13T12:19:53.896Z,29.22
2023-03-13T12:20:53.975Z,29.19
2023-03-13T12:21:54.013Z,29.18
2023-03-13T12:22:53.979Z,29.17
2023-03-13T12:23:54.317Z,29.17
2023-03-13T12:24:54.777Z,29.18
2023-03-13T12:25:54.286Z,29.15
2023-03-13T12:29:54.191Z,29.11
2023-03-13T14:30:57.068Z,24.89
2023-03-13T14:31:57.029Z,25.08
2023-03-13T14:32:57.067Z,25.30
2023-03-13T14:33:57.086Z,25.52
2023-03-13T14:34:57.126Z,25.83
2023-03-13T14:35:57.129Z,25.95
2023-03-13T14:37:10.965Z,25.96
2023-03-13T14:38:57.095Z,26.58
2023-03-13T14:39:57.052Z,26.60
2023-03-13T14:40:57.051Z,26.95
2023-03-13T14:41:56.999Z,27.14
2023-03-13T14:42:56.963Z,27.31
2023-03-13T14:43:56.943Z,27.48
2023-03-13T14:44:59.626Z,27.53
2023-03-13T14:45:56.915Z,27.77
2023-03-13T14:46:56.947Z,27.82
2023-03-13T14:47:56.875Z,27.95
2023-03-13T14:48:56.878Z,28.02
2023-03-13T14:49:56.809Z,28.22
2023-03-13T14:51:08.882Z,28.28
2023-03-13T14:51:57.800Z,29.13
2023-03-13T14:52:56.723Z,29.12
2023-03-13T14:53:56.727Z,29.24
2023-03-13T14:54:56.713Z,30.07
2023-03-13T14:55:56.663Z,30.51
2023-03-13T14:56:56.654Z,30.38
2023-03-13T14:57:56.621Z,30.35
2023-03-13T14:58:56.588Z,30.44
2023-03-13T14:59:56.563Z,30.35
2023-03-13T15:00:56.566Z,30.30
2023-03-13T15:01:56.511Z,30.22
2023-03-13T15:02:56.491Z,30.52
2023-03-13T15:03:56.566Z,30.62
2023-03-13T15:04:56.531Z,30.89
2023-03-13T15:05:56.526Z,31.18
2023-03-13T15:06:56.500Z,31.21
2023-03-13T15:07:56.537Z,31.14
2023-03-13T15:08:56.538Z,31.25
2023-03-13T15:09:56.531Z,32.62
2023-03-13T15:10:56.568Z,32.16
2023-03-13T15:11:56.548Z,32.00
2023-03-13T15:12:56.622Z,31.91
2023-03-13T15:13:56.560Z,32.29
2023-03-13T15:14:56.549Z,32.61
2023-03-13T15:15:56.645Z,32.57
2023-03-13T15:16:56.615Z,32.85
2023-03-13T15:17:56.571Z,32.72
2023-03-13T15:18:56.578Z,32.34
2023-03-13T15:19:56.607Z,32.74
2023-03-13T15:20:56.599Z,28.36
2023-03-13T15:21:56.642Z,26.42
2023-03-13T15:22:56.650Z,26.85
2023-03-13T15:23:56.689Z,26.54
2023-03-13T15:25:05.976Z,26.21
2023-03-13T15:25:57.710Z,25.93
2023-03-13T15:26:56.679Z,25.44
2023-03-13T15:27:56.684Z,25.41
2023-03-13T15:28:56.676Z,25.17
2023-03-13T15:29:56.700Z,24.80
2023-03-13T15:30:56.664Z,24.98
2023-03-13T15:31:56.673Z,24.47
2023-03-13T15:32:56.702Z,24.12
2023-03-13T15:33:56.629Z,25.28
2023-03-13T15:34:56.609Z,25.58
2023-03-13T15:35:56.669Z,25.75
2023-03-13T15:36:56.588Z,26.07
2023-03-13T15:37:56.595Z,26.94
2023-03-13T15:38:56.543Z,27.51
2023-03-13T15:39:56.549Z,27.90
2023-03-13T15:40:56.605Z,28.31
2023-03-13T15:41:56.558Z,28.82
2023-03-13T15:42:56.617Z,28.95
2023-03-13T15:43:56.619Z,29.24
2023-03-13T15:44:56.650Z,29.47
2023-03-13T15:45:56.774Z,29.71
2023-03-13T15:46:56.722Z,29.71
2023-03-13T15:47:56.820Z,29.82
2023-03-13T15:48:56.787Z,30.14
2023-03-13T15:49:56.792Z,30.50
2023-03-13T15:50:56.841Z,30.81
2023-03-13T15:51:57.877Z,30.94
2023-03-13T15:52:56.852Z,30.81
2023-03-13T15:53:56.851Z,31.08
2023-03-13T15:54:56.878Z,31.32
2023-03-13T15:55:56.877Z,31.37
2023-03-13T15:56:56.881Z,31.57
2023-03-13T15:57:56.925Z,31.40
2023-03-13T15:58:56.937Z,31.76
2023-03-13T15:59:56.903Z,31.68
2023-03-13T16:00:57.010Z,32.05
2023-03-13T16:01:56.918Z,32.30
2023-03-13T16:02:56.924Z,32.37
2023-03-13T16:03:56.949Z,32.22
2023-03-13T16:04:56.932Z,32.26
2023-03-13T16:05:56.978Z,32.66
2023-03-13T16:06:56.945Z,32.92
2023-03-13T16:07:56.928Z,31.80
2023-03-13T16:08:56.972Z,28.12
2023-03-13T16:09:56.966Z,25.93
2023-03-13T16:10:57.015Z,26.85
2023-03-13T16:11:57.050Z,27.12
2023-03-13T16:12:57.058Z,27.38
2023-03-13T16:13:57.523Z,27.83
2023-03-13T16:14:57.123Z,28.01
2023-03-13T16:15:57.153Z,27.98
2023-03-13T16:16:57.268Z,28.10
2023-03-13T16:17:57.204Z,28.24
2023-03-13T16:18:57.228Z,28.34
2023-03-13T16:19:57.268Z,28.40
2023-03-13T16:20:57.297Z,28.59
2023-03-13T16:21:57.314Z,28.69
2023-03-13T16:22:57.345Z,28.89
2023-03-13T16:23:57.330Z,28.94
2023-03-13T16:24:57.380Z,29.29
2023-03-13T16:25:57.404Z,29.31
2023-03-13T16:26:57.391Z,29.23
2023-03-13T16:27:57.411Z,29.42
2023-03-13T16:28:57.465Z,29.30
2023-03-13T16:29:57.452Z,29.34
2023-03-13T16:30:57.933Z,29.55
2023-03-13T16:31:57.467Z,29.55
2023-03-13T16:32:57.575Z,29.65
2023-03-13T16:33:57.480Z,29.67
2023-03-13T16:34:57.480Z,29.88
2023-03-13T16:35:57.600Z,29.97
2023-03-13T16:36:57.544Z,30.03
2023-03-13T16:38:57.530Z,29.97
2023-03-13T16:39:57.565Z,30.03
2023-03-13T16:40:57.575Z,30.16
2023-03-13T16:41:57.569Z,30.18
2023-03-13T16:42:57.553Z,30.06
2023-03-13T16:43:57.600Z,30.31
2023-03-13T16:44:57.596Z,30.42
2023-03-13T16:45:57.678Z,30.12
2023-03-13T16:47:05.693Z,30.12
2023-03-13T16:47:58.563Z,30.05
2023-03-13T16:48:57.580Z,30.20
2023-03-13T16:49:57.500Z,30.56
2023-03-13T16:50:57.535Z,30.35
2023-03-13T16:51:57.489Z,30.33
2023-03-13T16:52:57.449Z,30.41
2023-03-13T16:53:57.444Z,30.31
2023-03-13T16:54:57.412Z,30.26
2023-03-13T16:55:57.428Z,30.04
2023-03-13T16:56:57.370Z,30.02
2023-03-13T16:57:57.390Z,30.04
2023-03-13T16:58:57.327Z,29.90
2023-03-13T16:59:57.310Z,29.91
2023-03-13T17:01:05.395Z,29.46
2023-03-13T17:01:58.220Z,29.77
2023-03-13T17:02:57.235Z,28.74
2023-03-13T17:03:57.275Z,28.75
2023-03-13T17:04:57.187Z,29.20
2023-03-13T17:05:57.180Z,28.87
2023-03-13T17:06:57.152Z,28.62
2023-03-13T17:07:57.119Z,28.26
2023-03-13T17:08:57.120Z,28.02
2023-03-13T17:09:57.108Z,28.14
2023-03-13T17:10:57.122Z,28.24
2023-03-13T17:11:57.074Z,28.12
2023-03-13T17:12:57.074Z,28.20
2023-03-13T17:13:57.009Z,28.05
2023-03-13T17:14:57.005Z,27.78
2023-03-13T17:15:57.104Z,27.61
2023-03-13T17:16:56.978Z,27.70
2023-03-13T17:18:57.040Z,27.21
2023-03-13T17:19:57.522Z,27.09
2023-03-13T17:20:57.116Z,27.20
2023-03-13T17:21:57.134Z,26.81
2023-03-13T17:22:57.191Z,26.76
2023-03-13T17:23:57.209Z,26.79
2023-03-13T17:24:57.215Z,26.67
2023-03-13T17:25:57.279Z,26.58
2023-03-13T17:26:57.299Z,26.62
2023-03-13T17:27:57.340Z,26.34
2023-03-13T17:28:57.402Z,26.19
2023-03-13T17:29:57.407Z,26.23
2023-03-13T17:30:57.496Z,26.17
2023-03-13T17:31:57.498Z,25.72
2023-03-13T17:32:57.526Z,25.87
2023-03-13T17:33:57.582Z,25.93
2023-03-13T17:34:57.598Z,25.71
2023-03-13T17:35:57.654Z,25.60
2023-03-13T17:36:57.691Z,25.60
2023-03-13T17:37:57.674Z,25.44
2023-03-13T17:38:57.686Z,25.19
2023-03-13T17:39:57.730Z,25.25
2023-03-13T17:40:57.815Z,25.23
2023-03-13T17:41:57.798Z,25.15
2023-03-13T17:42:57.834Z,25.02
2023-03-13T17:43:57.831Z,24.99
2023-03-13T17:44:57.845Z,25.08
2023-03-13T17:45:57.864Z,24.96
2023-03-13T17:46:57.891Z,24.99
2023-03-13T17:47:57.906Z,24.73
2023-03-13T17:48:57.902Z,24.70
2023-03-13T17:49:57.905Z,24.72
2023-03-13T17:50:57.915Z,24.71
2023-03-13T17:51:57.957Z,24.62
2023-03-13T17:52:57.931Z,24.53
2023-03-13T17:53:57.946Z,24.41
2023-03-13T17:54:57.952Z,24.42
2023-03-13T17:55:57.990Z,24.40
2023-03-13T17:56:58.033Z,24.35
2023-03-13T17:57:58.023Z,24.19
2023-03-13T17:58:58.046Z,24.18
2023-03-13T17:59:58.051Z,24.21
2023-03-13T18:00:58.063Z,24.12
2023-03-13T18:10:58.135Z,23.85
2023-03-13T18:18:58.219Z,23.55
2023-03-13T18:19:58.250Z,23.55
2023-03-13T18:20:58.263Z,23.56
2023-03-13T18:21:58.244Z,23.55
2023-03-13T18:22:58.263Z,23.53
2023-03-13T18:23:58.299Z,23.60
2023-03-13T18:24:58.340Z,23.56
2023-03-13T18:25:58.337Z,23.54
2023-03-13T18:26:58.336Z,23.51
2023-03-13T20:35:01.666Z,22.81
2023-03-13T20:36:01.809Z,22.84
2023-03-13T20:37:01.730Z,22.81
2023-03-13T20:38:01.760Z,22.80
2023-03-13T20:39:01.833Z,22.76
2023-03-13T20:40:01.842Z,22.76
2023-03-13T20:41:01.902Z,22.79
2023-03-13T20:42:03.128Z,22.78
2023-03-13T20:43:01.976Z,22.80
2023-03-13T20:44:01.997Z,22.84
2023-03-13T20:45:02.055Z,22.85
2023-03-13T20:46:02.064Z,22.87
2023-03-13T20:47:02.114Z,22.86
2023-03-13T20:48:02.191Z,22.88
2023-03-13T20:49:02.214Z,22.87
2023-03-13T20:50:02.177Z,22.84
2023-03-13T20:51:02.298Z,22.83
2023-03-13T20:52:02.242Z,22.85
2023-03-13T20:53:02.307Z,22.87
2023-03-13T20:54:02.291Z,22.89
2023-03-13T20:55:02.353Z,22.86
2023-03-13T20:56:04.005Z,22.87
2023-03-13T20:57:02.355Z,22.87
2023-03-13T20:58:02.377Z,22.88
2023-03-13T20:59:02.324Z,22.90
2023-03-13T21:00:02.329Z,22.89
2023-03-13T21:01:02.303Z,22.85
2023-03-13T21:02:02.345Z,22.86
2023-03-13T21:03:02.431Z,22.87
2023-03-13T21:04:02.594Z,22.89
2023-03-13T21:05:02.510Z,22.89
2023-03-13T21:06:02.246Z,22.89
2023-03-13T21:07:02.226Z,22.88
2023-03-13T21:08:02.197Z,22.87
2023-03-13T21:09:02.198Z,22.88
2023-03-13T21:10:02.161Z,22.91
2023-03-13T21:11:02.171Z,22.91
2023-03-13T21:12:02.176Z,22.88
2023-03-13T21:13:02.186Z,22.88
2023-03-13T21:14:02.180Z,22.89
2023-03-13T21:15:03.069Z,22.94
2023-03-13T21:16:02.206Z,22.92
2023-03-13T21:17:02.148Z,22.95
2023-03-13T21:18:02.134Z,22.94
2023-03-13T21:19:02.162Z,22.94
2023-03-13T21:20:02.196Z,22.95
2023-03-13T21:21:02.249Z,22.93
2023-03-13T21:22:02.320Z,22.95
2023-03-13T21:23:02.347Z,22.96
2023-03-13T21:24:02.388Z,22.94
2023-03-13T21:25:02.444Z,22.92
2023-03-13T21:26:02.509Z,22.93
2023-03-13T21:27:02.513Z,22.91
2023-03-13T21:28:02.580Z,22.92
2023-03-13T21:29:02.595Z,22.92
2023-03-13T21:30:02.643Z,22.94
2023-03-13T21:31:02.706Z,22.92
2023-03-13T21:32:02.738Z,22.94
2023-03-13T21:33:02.766Z,22.91
2023-03-13T21:34:02.793Z,22.93
2023-03-13T21:35:02.828Z,22.93
2023-03-13T21:36:02.961Z,22.92
2023-03-13T21:37:02.902Z,22.90
2023-03-13T21:38:02.959Z,22.91
2023-03-13T21:39:02.993Z,22.94
2023-03-13T21:40:03.039Z,22.93
2023-03-13T21:41:03.115Z,22.93
2023-03-13T21:42:03.137Z,22.91
2023-03-13T21:43:03.204Z,22.90
2023-03-13T21:44:03.220Z,22.93
2023-03-13T21:45:03.262Z,22.93
2023-03-13T21:46:03.302Z,22.92
2023-03-13T21:47:03.390Z,22.91
2023-03-13T21:48:03.418Z,22.91
2023-03-13T21:49:03.424Z,22.93
2023-03-13T21:50:03.519Z,22.94
2023-03-13T21:51:03.520Z,22.94
2023-03-13T21:52:03.584Z,22.95
2023-03-13T21:53:03.592Z,22.94
2023-03-13T21:54:03.652Z,22.96
2023-03-13T21:55:03.719Z,22.95
2023-03-13T21:56:03.799Z,22.94
2023-03-13T21:57:03.786Z,22.95
2023-03-13T21:58:03.827Z,22.95
2023-03-13T21:59:03.842Z,22.97
2023-03-13T22:00:03.894Z,22.98
2023-03-13T22:01:04.014Z,22.98
2023-03-13T22:02:03.996Z,22.94
2023-03-13T22:03:04.092Z,22.95
2023-03-13T22:04:04.077Z,22.96
2023-03-13T22:05:04.111Z,22.96
2023-03-13T22:06:04.123Z,22.98
2023-03-13T22:07:04.186Z,22.99
2023-03-13T22:08:04.230Z,23.00
2023-03-13T22:09:04.430Z,23.00
2023-03-13T22:10:04.291Z,23.03
2023-03-13T22:11:04.362Z,23.00
2023-03-13T22:12:04.414Z,23.03
2023-03-13T22:13:04.415Z,23.02
2023-03-13T22:14:04.470Z,22.99
2023-03-13T22:15:04.489Z,22.99
2023-03-13T22:16:04.560Z,23.00
2023-03-13T22:17:04.607Z,23.00
2023-03-13T22:18:04.646Z,23.01
2023-03-13T22:19:04.691Z,23.02
2023-03-13T22:20:04.728Z,23.02
2023-03-13T22:21:04.790Z,22.99
2023-03-13T22:22:04.808Z,23.06
2023-03-13T22:23:04.864Z,23.04
2023-03-13T22:24:04.919Z,23.04
2023-03-13T22:25:04.969Z,23.02
2023-03-13T22:26:05.002Z,23.01
2023-03-13T22:27:05.043Z,23.01
2023-03-13T22:28:05.092Z,23.04
2023-03-13T22:29:05.137Z,23.03
2023-03-13T22:30:05.193Z,23.05
2023-03-13T22:31:05.228Z,23.06
2023-03-13T22:32:05.288Z,23.04
2023-03-13T22:33:05.331Z,23.02
2023-03-13T22:34:05.371Z,23.03
2023-03-13T22:35:05.450Z,23.01
2023-03-13T22:36:05.493Z,23.01
2023-03-13T22:37:05.522Z,23.01
2023-03-13T22:39:05.648Z,23.04
2023-03-13T22:40:05.683Z,23.03
2023-03-13T22:43:05.813Z,23.04
2023-03-13T22:44:05.890Z,23.05
2023-03-13T22:45:05.920Z,23.01
2023-03-13T22:46:05.996Z,23.04
2023-03-13T22:47:06.016Z,23.03
2023-03-13T22:48:06.086Z,23.05
2023-03-13T22:49:06.111Z,23.07
2023-03-13T22:50:06.160Z,23.06
2023-03-13T22:51:08.523Z,23.03
2023-03-13T23:00:06.804Z,23.04
2023-03-13T23:01:06.906Z,23.06
2023-03-13T23:02:06.908Z,23.05
2023-03-13T23:03:06.972Z,23.03
2023-03-13T23:04:06.974Z,23.00
2023-03-13T23:05:07.025Z,23.03
2023-03-13T23:06:07.094Z,23.05
2023-03-13T23:07:07.112Z,23.04
2023-03-13T23:08:07.150Z,23.04
2023-03-13T23:09:07.236Z,23.04
2023-03-13T23:10:07.266Z,23.04
2023-03-13T23:11:07.300Z,23.04
2023-03-13T23:12:07.385Z,23.04
2023-03-13T23:13:07.365Z,23.04
2023-03-13T23:14:07.411Z,23.04
2023-03-13T23:15:07.509Z,23.04
2023-03-13T23:16:07.534Z,23.03
2023-03-13T23:17:07.552Z,23.05
2023-03-13T23:18:07.620Z,23.05
2023-03-13T23:19:07.659Z,23.05
2023-03-13T23:20:07.671Z,23.02
2023-03-13T23:21:07.746Z,23.03
2023-03-13T23:22:07.824Z,23.04
2023-03-13T23:23:07.830Z,23.05
2023-03-13T23:24:07.898Z,23.05
2023-03-13T23:25:07.913Z,23.05
2023-03-13T23:26:07.971Z,23.02
2023-03-13T23:32:08.216Z,22.99
2023-03-13T23:33:08.284Z,23.00
2023-03-13T23:34:08.351Z,23.04
2023-03-13T23:35:08.387Z,23.05
2023-03-13T23:37:08.472Z,23.04
2023-03-13T23:38:08.502Z,23.05
2023-03-13T23:39:08.602Z,23.04
2023-03-13T23:40:08.611Z,23.06
2023-03-13T23:41:08.697Z,23.04
2023-03-13T23:42:08.742Z,23.04
2023-03-13T23:43:08.811Z,23.06
2023-03-13T23:44:08.857Z,23.04
2023-03-13T23:45:08.894Z,23.04
2023-03-13T23:46:08.972Z,23.03
2023-03-13T23:47:09.013Z,23.01
2023-03-13T23:48:09.067Z,23.03
2023-03-13T23:49:09.106Z,23.06